createdAt,value
2022-08-26T00:01:41.704Z,97364.97
2022-08-26T00:03:54.990Z,97367.50
2022-08-26T00:06:03.857Z,97366.84
2022-08-26T00:08:13.201Z,97376.09
2022-08-26T00:10:22.925Z,97373.38
2022-08-26T00:12:37.624Z,97365.63
2022-08-26T00:14:46.178Z,97366.28
2022-08-26T00:16:55.308Z,97362.25
2022-08-26T00:19:05.976Z,97368.47
2022-08-26T00:21:16.151Z,97362.38
2022-08-26T00:23:24.397Z,97369.28
2022-08-26T00:25:32.900Z,97371.28
2022-08-26T00:27:41.280Z,97373.63
2022-08-26T00:29:49.210Z,97374.09
2022-08-26T00:31:57.203Z,97369.22
2022-08-26T00:34:09.482Z,97374.06
2022-08-26T00:36:20.297Z,97371.00
2022-08-26T00:38:28.750Z,97376.56
2022-08-26T00:40:40.742Z,97373.06
2022-08-26T00:42:48.895Z,97366.63
2022-08-26T00:44:57.746Z,97364.72
2022-08-26T00:47:10.582Z,97370.13
2022-08-26T00:49:26.300Z,97366.75
2022-08-26T00:51:46.622Z,97369.56
2022-08-26T00:54:00.488Z,97361.94
2022-08-26T00:56:12.481Z,97365.59
2022-08-26T00:58:21.714Z,97367.91
2022-08-26T01:00:31.656Z,97365.38
2022-08-26T01:02:39.903Z,97364.31
2022-08-26T01:05:13.345Z,97360.41
2022-08-26T01:07:21.505Z,97366.00
2022-08-26T01:09:29.980Z,97375.72
2022-08-26T01:11:38.230Z,97371.16
2022-08-26T01:13:47.593Z,97375.28
2022-08-26T01:16:00.269Z,97379.31
2022-08-26T01:18:10.414Z,97380.63
2022-08-26T01:20:34.183Z,97375.41
2022-08-26T01:22:53.280Z,97377.25
2022-08-26T01:25:04.973Z,97372.16
2022-08-26T01:27:16.286Z,97370.22
2022-08-26T01:29:24.282Z,97369.88
2022-08-26T01:31:36.163Z,97363.63
2022-08-26T01:33:51.016Z,97364.84
2022-08-26T01:35:58.965Z,97369.38
2022-08-26T01:38:14.109Z,97362.84
2022-08-26T01:40:26.146Z,97356.41
2022-08-26T01:42:34.391Z,97351.03
2022-08-26T01:44:47.901Z,97352.34
2022-08-26T01:46:57.501Z,97351.63
2022-08-26T01:49:09.677Z,97357.19
2022-08-26T01:51:20.118Z,97353.66
2022-08-26T01:53:31.129Z,97353.50
2022-08-26T01:55:42.091Z,97355.16
2022-08-26T01:57:54.006Z,97362.34
2022-08-26T02:00:08.853Z,97361.81
2022-08-26T02:02:21.032Z,97362.34
2022-08-26T02:04:33.839Z,97362.56
2022-08-26T02:06:44.857Z,97356.88
2022-08-26T02:09:08.101Z,97362.34
2022-08-26T02:11:22.380Z,97365.50
2022-08-26T02:13:32.923Z,97366.19
2022-08-26T02:15:43.737Z,97357.66
2022-08-26T02:17:53.617Z,97363.03
2022-08-26T02:20:04.879Z,97369.25
2022-08-26T02:22:25.241Z,97369.78
2022-08-26T02:24:50.675Z,97369.25
2022-08-26T02:26:59.519Z,97369.97
2022-08-26T02:29:12.087Z,97371.19
2022-08-26T02:31:20.338Z,97364.53
2022-08-26T02:33:30.821Z,97372.78
2022-08-26T02:35:40.061Z,97367.91
2022-08-26T02:37:49.513Z,97365.84
2022-08-26T02:40:00.643Z,97364.53
2022-08-26T02:42:08.793Z,97358.63
2022-08-26T02:44:16.944Z,97358.09
2022-08-26T02:46:27.769Z,97356.56
2022-08-26T02:48:38.634Z,97366.47
2022-08-26T02:50:46.886Z,97367.78
2022-08-26T02:52:57.144Z,97361.88
2022-08-26T02:55:11.020Z,97354.28
2022-08-26T02:57:19.346Z,97361.19
2022-08-26T02:59:31.472Z,97358.56
2022-08-26T03:01:39.426Z,97365.50
2022-08-26T03:03:47.372Z,97366.28
2022-08-26T03:05:57.762Z,97359.56
2022-08-26T03:08:06.198Z,97356.38
2022-08-26T03:10:16.713Z,97355.53
2022-08-26T03:12:25.630Z,97358.34
2022-08-26T03:14:33.732Z,97349.59
2022-08-26T03:16:41.724Z,97345.34
2022-08-26T03:18:52.305Z,97340.75
2022-08-26T03:21:00.541Z,97349.09
2022-08-26T03:23:09.034Z,97339.81
2022-08-26T03:25:21.008Z,97345.50
2022-08-26T03:27:29.451Z,97342.19
2022-08-26T03:29:55.474Z,97340.19
2022-08-26T03:32:04.192Z,97343.50
2022-08-26T03:34:12.059Z,97341.09
2022-08-26T03:36:20.366Z,97347.50
2022-08-26T03:38:28.164Z,97345.72
2022-08-26T03:40:39.889Z,97341.44
2022-08-26T03:42:48.674Z,97344.13
2022-08-26T03:44:57.243Z,97346.34
2022-08-26T03:47:05.214Z,97344.09
2022-08-26T03:49:14.239Z,97345.66
2022-08-26T03:51:23.151Z,97341.69
2022-08-26T03:53:32.802Z,97347.03
2022-08-26T03:55:46.640Z,97345.06
2022-08-26T03:57:57.204Z,97348.34
2022-08-26T04:00:07.556Z,97343.00
2022-08-26T04:02:16.480Z,97340.94
2022-08-26T04:04:25.817Z,97342.38
2022-08-26T04:06:36.166Z,97342.81
2022-08-26T04:09:02.712Z,97339.44
2022-08-26T04:11:22.643Z,97342.81
2022-08-26T04:13:32.845Z,97342.28
2022-08-26T04:15:40.817Z,97339.72
2022-08-26T04:17:48.734Z,97341.16
2022-08-26T04:19:56.940Z,97342.72
2022-08-26T04:22:06.576Z,97345.50
2022-08-26T04:24:16.555Z,97337.94
2022-08-26T04:26:29.027Z,97338.22
2022-08-26T04:28:37.129Z,97336.53
2022-08-26T04:30:45.443Z,97337.94
2022-08-26T04:32:53.444Z,97334.69
2022-08-26T04:35:01.961Z,97334.53
2022-08-26T04:37:10.783Z,97332.25
2022-08-26T04:39:20.419Z,97339.72
2022-08-26T04:41:31.692Z,97337.03
2022-08-26T04:43:39.715Z,97342.97
2022-08-26T04:45:47.591Z,97334.34
2022-08-26T04:47:57.527Z,97337.84
2022-08-26T04:50:06.246Z,97343.88
2022-08-26T04:52:15.585Z,97344.22
2022-08-26T04:54:25.193Z,97346.72
2022-08-26T04:56:38.748Z,97346.44
2022-08-26T04:58:46.790Z,97344.72
2022-08-26T05:00:56.907Z,97353.31
2022-08-26T05:03:05.113Z,97348.69
2022-08-26T05:05:14.240Z,97358.19
2022-08-26T05:07:22.348Z,97362.44
2022-08-26T05:09:30.755Z,97369.63
2022-08-26T05:11:41.433Z,97369.97
2022-08-26T05:13:49.837Z,97375.16
2022-08-26T05:15:58.221Z,97375.69
2022-08-26T05:18:11.517Z,97376.81
2022-08-26T05:20:25.188Z,97381.41
2022-08-26T05:22:34.086Z,97377.91
2022-08-26T05:24:43.355Z,97379.56
2022-08-26T05:26:53.873Z,97381.41
2022-08-26T05:29:01.724Z,97379.09
2022-08-26T05:31:17.729Z,97382.81
2022-08-26T05:33:26.508Z,97385.97
2022-08-26T05:35:34.848Z,97392.28
2022-08-26T05:37:43.019Z,97387.28
2022-08-26T05:39:51.346Z,97392.19
2022-08-26T05:42:04.407Z,97388.75
2022-08-26T05:44:15.543Z,97397.22
2022-08-26T05:46:24.509Z,97404.75
2022-08-26T05:48:34.521Z,97395.94
2022-08-26T05:50:43.824Z,97407.38
2022-08-26T05:52:52.159Z,97391.47
2022-08-26T05:55:00.096Z,97396.00
2022-08-26T05:57:12.180Z,97394.00
2022-08-26T05:59:24.115Z,97395.78
2022-08-26T06:01:35.832Z,97400.09
2022-08-26T06:03:46.603Z,97404.69
2022-08-26T06:05:57.376Z,97402.00
2022-08-26T06:08:14.757Z,97397.94
2022-08-26T06:10:33.024Z,97404.59
2022-08-26T06:12:44.184Z,97408.25
2022-08-26T06:14:52.127Z,97414.41
2022-08-26T06:17:00.927Z,97413.75
2022-08-26T06:19:11.515Z,97420.31
2022-08-26T06:21:22.001Z,97425.66
2022-08-26T06:23:44.588Z,97434.97
2022-08-26T06:25:53.245Z,97465.22
2022-08-26T06:28:04.034Z,97469.91
2022-08-26T06:30:13.131Z,97466.81
2022-08-26T06:32:21.371Z,97447.78
2022-08-26T06:34:31.324Z,97459.09
2022-08-26T06:36:39.623Z,97461.06
2022-08-26T06:38:47.905Z,97444.19
2022-08-26T06:40:59.859Z,97435.00
2022-08-26T06:43:10.410Z,97443.00
2022-08-26T06:45:20.594Z,97452.00
2022-08-26T06:47:29.208Z,97450.59
2022-08-26T06:49:37.227Z,97466.28
2022-08-26T06:51:46.987Z,97452.22
2022-08-26T06:53:59.604Z,97437.53
2022-08-26T06:56:09.644Z,97447.44
2022-08-26T06:58:20.242Z,97438.88
2022-08-26T07:00:28.445Z,97450.13
2022-08-26T07:02:37.487Z,97464.63
2022-08-26T07:04:45.438Z,97458.88
2022-08-26T07:06:56.819Z,97442.69
2022-08-26T07:09:09.762Z,97443.41
2022-08-26T07:11:19.058Z,97462.84
2022-08-26T07:13:30.655Z,97474.16
2022-08-26T07:15:42.802Z,97479.38
2022-08-26T07:17:51.259Z,97453.91
2022-08-26T07:19:59.565Z,97441.97
2022-08-26T07:22:09.344Z,97453.28
2022-08-26T07:24:18.437Z,97474.81
2022-08-26T07:26:30.840Z,97485.25
2022-08-26T07:28:42.047Z,97495.00
2022-08-26T07:30:50.134Z,97503.13
2022-08-26T07:32:59.624Z,97521.88
2022-08-26T07:35:09.234Z,97499.75
2022-08-26T07:37:17.519Z,97501.41
2022-08-26T07:39:27.272Z,97502.03
2022-08-26T07:41:36.702Z,97509.53
2022-08-26T07:43:48.565Z,97505.63
2022-08-26T07:45:56.752Z,97490.56
2022-08-26T07:48:05.385Z,97491.50
2022-08-26T07:50:14.102Z,97504.88
2022-08-26T07:52:26.581Z,97493.03
2022-08-26T07:54:37.414Z,97496.19
2022-08-26T07:56:46.291Z,97485.03
2022-08-26T07:58:57.064Z,97469.69
2022-08-26T08:01:05.121Z,97481.94
2022-08-26T08:03:17.877Z,97477.16
2022-08-26T08:05:33.607Z,97461.06
2022-08-26T08:07:45.403Z,97459.94
2022-08-26T08:09:53.457Z,97451.16
2022-08-26T08:12:01.545Z,97457.91
2022-08-26T08:14:12.236Z,97474.72
2022-08-26T08:16:21.668Z,97476.50
2022-08-26T08:18:32.649Z,97477.72
2022-08-26T08:20:42.304Z,97479.06
2022-08-26T08:22:53.429Z,97462.09
2022-08-26T08:25:02.940Z,97448.66
2022-08-26T08:27:14.161Z,97443.69
2022-08-26T08:29:25.009Z,97435.03
2022-08-26T08:34:02.315Z,97464.75
2022-08-26T08:36:10.827Z,97455.59
2022-08-26T08:38:28.472Z,97464.44
2022-08-26T08:40:37.669Z,97452.09
2022-08-26T08:42:53.824Z,97455.09
2022-08-26T08:45:10.822Z,97439.69
2022-08-26T08:47:24.219Z,97440.81
2022-08-26T08:49:34.072Z,97436.75
2022-08-26T08:51:50.048Z,97435.97
2022-08-26T08:53:59.076Z,97438.72
2022-08-26T08:56:21.375Z,97426.47
2022-08-26T08:58:38.414Z,97427.22
2022-08-26T09:00:54.403Z,97425.78
2022-08-26T09:03:10.910Z,97421.84
2022-08-26T09:05:24.507Z,97420.13
2022-08-26T09:07:37.049Z,97417.81
2022-08-26T09:09:49.313Z,97409.56
2022-08-26T09:11:59.415Z,97421.69
2022-08-26T09:14:11.103Z,97416.72
2022-08-26T09:16:27.059Z,97416.97
2022-08-26T09:18:47.563Z,97416.56
2022-08-26T09:20:59.770Z,97414.44
2022-08-26T09:23:07.705Z,97431.13
2022-08-26T09:25:18.079Z,97428.81
2022-08-26T09:27:41.051Z,97436.88
2022-08-26T09:29:50.372Z,97442.47
2022-08-26T09:32:21.280Z,97445.16
2022-08-26T09:34:30.888Z,97447.78
2022-08-26T09:36:42.623Z,97465.03
2022-08-26T09:38:52.509Z,97457.63
2022-08-26T09:41:02.350Z,97451.25
2022-08-26T09:43:22.192Z,97465.50
2022-08-26T09:45:31.979Z,97470.38
2022-08-26T09:47:54.709Z,97465.50
2022-08-26T09:50:12.628Z,97479.50
2022-08-26T09:52:26.791Z,97460.59
2022-08-26T09:54:38.613Z,97440.81
2022-08-26T09:56:48.437Z,97440.22
2022-08-26T09:58:57.831Z,97439.88
2022-08-26T10:01:10.234Z,97424.44
2022-08-26T10:03:28.611Z,97421.59
2022-08-26T10:05:45.535Z,97431.31
2022-08-26T10:07:54.417Z,97430.97
2022-08-26T10:10:04.391Z,97409.00
2022-08-26T10:12:18.270Z,97413.75
2022-08-26T10:14:30.852Z,97410.78
2022-08-26T10:16:53.576Z,97404.41
2022-08-26T10:19:11.470Z,97413.72
2022-08-26T10:21:24.474Z,97406.25
2022-08-26T10:23:35.824Z,97390.78
2022-08-26T10:25:58.996Z,97390.13
2022-08-26T10:28:11.182Z,97404.44
2022-08-26T10:30:21.215Z,97403.50
2022-08-26T10:32:35.811Z,97389.22
2022-08-26T10:34:51.733Z,97395.59
2022-08-26T10:37:13.744Z,97382.97
2022-08-26T10:39:29.272Z,97379.06
2022-08-26T10:41:44.269Z,97380.50
2022-08-26T10:43:57.989Z,97374.91
2022-08-26T10:46:11.281Z,97372.06
2022-08-26T10:48:23.565Z,97362.00
2022-08-26T10:50:38.731Z,97366.06
2022-08-26T10:53:01.350Z,97367.31
2022-08-26T10:55:19.243Z,97364.78
2022-08-26T10:57:38.263Z,97363.63
2022-08-26T10:59:55.584Z,97350.69
2022-08-26T11:02:08.995Z,97354.81
2022-08-26T11:04:47.098Z,97353.38
2022-08-26T11:07:25.708Z,97335.97
2022-08-26T11:09:50.801Z,97329.69
2022-08-26T11:11:58.657Z,97323.88
2022-08-26T11:14:08.257Z,97338.28
2022-08-26T11:16:35.528Z,97333.38
2022-08-26T11:18:54.791Z,97331.81
2022-08-26T11:21:02.734Z,97328.19
2022-08-26T11:23:50.716Z,97339.59
2022-08-26T11:26:37.693Z,97337.00
2022-08-26T11:28:50.672Z,97332.91
2022-08-26T11:31:00.056Z,97328.94
2022-08-26T11:33:09.268Z,97319.13
2022-08-26T11:35:53.295Z,97313.59
2022-08-26T11:38:04.498Z,97308.28
2022-08-26T11:40:17.345Z,97301.69
2022-08-26T11:42:37.912Z,97294.16
2022-08-26T11:44:49.625Z,97290.69
2022-08-26T11:47:00.323Z,97282.81
2022-08-26T11:49:09.987Z,97280.66
2022-08-26T11:51:25.930Z,97283.38
2022-08-26T11:53:37.179Z,97286.09
2022-08-26T11:55:47.289Z,97287.22
2022-08-26T11:58:04.629Z,97291.22
2022-08-26T12:00:20.856Z,97294.75
2022-08-26T12:02:31.346Z,97285.19
2022-08-26T12:04:44.607Z,97292.03
2022-08-26T12:06:54.392Z,97279.03
2022-08-26T12:09:04.605Z,97276.31
2022-08-26T12:11:23.217Z,97284.75
2022-08-26T12:13:33.971Z,97280.91
2022-08-26T12:15:42.494Z,97287.91
2022-08-26T12:17:54.360Z,97284.53
2022-08-26T12:20:02.872Z,97285.78
2022-08-26T12:22:20.962Z,97290.44
2022-08-26T12:24:29.345Z,97293.84
2022-08-26T12:26:40.084Z,97290.25
2022-08-26T12:28:55.222Z,97280.41
2022-08-26T12:31:05.168Z,97282.81
2022-08-26T12:33:22.259Z,97279.00
2022-08-26T12:35:31.436Z,97282.88
2022-08-26T12:37:44.894Z,97272.44
2022-08-26T12:39:53.440Z,97276.31
2022-08-26T12:42:03.097Z,97271.66
2022-08-26T12:44:34.139Z,97263.63
2022-08-26T12:46:43.916Z,97265.78
2022-08-26T12:48:55.039Z,97256.34
2022-08-26T12:51:03.601Z,97255.78
2022-08-26T12:53:22.579Z,97259.59
2022-08-26T12:55:40.829Z,97267.19
2022-08-26T12:57:50.228Z,97265.31
2022-08-26T13:00:36.707Z,97253.78
2022-08-26T13:02:44.565Z,97251.59
2022-08-26T13:05:01.183Z,97265.53
2022-08-26T13:07:17.251Z,97249.06
2022-08-26T13:09:33.999Z,97256.47
2022-08-26T13:12:02.315Z,97253.56
2022-08-26T13:14:12.611Z,97250.50
2022-08-26T13:16:29.329Z,97251.22
2022-08-26T13:18:37.598Z,97246.66
2022-08-26T13:20:49.162Z,97246.47
2022-08-26T13:22:59.067Z,97234.97
2022-08-26T13:25:07.959Z,97223.06
2022-08-26T13:27:20.751Z,97216.75
2022-08-26T13:29:28.737Z,97220.94
2022-08-26T13:31:41.526Z,97216.28
2022-08-26T13:33:49.945Z,97222.34
2022-08-26T13:35:58.295Z,97216.72
2022-08-26T13:38:09.025Z,97222.56
2022-08-26T13:40:17.319Z,97214.84
2022-08-26T13:42:25.565Z,97213.41
2022-08-26T13:44:33.545Z,97216.06
2022-08-26T13:48:53.484Z,97212.69
2022-08-26T13:51:02.717Z,97209.41
2022-08-26T13:53:17.309Z,97213.31
2022-08-26T13:55:25.249Z,97216.72
2022-08-26T13:57:33.652Z,97214.88
2022-08-26T13:59:41.680Z,97215.28
2022-08-26T14:01:52.550Z,97203.44
2022-08-26T14:04:02.610Z,97195.78
2022-08-26T14:06:10.857Z,97194.84
2022-08-26T14:08:20.154Z,97188.94
2022-08-26T14:10:29.245Z,97188.94
2022-08-26T14:12:37.043Z,97179.47
2022-08-26T14:14:48.256Z,97180.31
2022-08-26T14:17:00.404Z,97175.63
2022-08-26T14:19:10.313Z,97175.63
2022-08-26T14:21:18.415Z,97177.13
2022-08-26T14:23:26.287Z,97177.28
2022-08-26T14:25:34.223Z,97185.31
2022-08-26T14:27:42.902Z,97186.84
2022-08-26T14:29:52.369Z,97186.97
2022-08-26T14:32:15.213Z,97189.72
2022-08-26T14:34:23.210Z,97184.66
2022-08-26T14:36:32.433Z,97191.97
2022-08-26T14:38:40.452Z,97196.34
2022-08-26T14:40:48.448Z,97206.38
2022-08-26T14:42:58.897Z,97208.13
2022-08-26T14:45:11.559Z,97206.13
2022-08-26T14:47:22.708Z,97214.13
2022-08-26T14:49:31.615Z,97208.47
2022-08-26T14:51:40.747Z,97204.03
2022-08-26T14:54:01.014Z,97193.13
2022-08-26T14:56:09.723Z,97186.88
2022-08-26T14:58:20.187Z,97178.66
2022-08-26T15:00:28.590Z,97181.38
2022-08-26T15:02:39.845Z,97175.50
2022-08-26T15:04:47.802Z,97174.25
2022-08-26T15:06:59.750Z,97165.44
2022-08-26T15:09:08.610Z,97163.38
2022-08-26T15:11:18.342Z,97170.53
2022-08-26T15:13:26.274Z,97176.75
2022-08-26T15:15:34.317Z,97180.94
2022-08-26T15:17:45.131Z,97181.09
2022-08-26T15:19:53.513Z,97177.19
2022-08-26T15:22:01.531Z,97174.53
2022-08-26T15:24:09.757Z,97192.56
2022-08-26T15:26:18.724Z,97190.25
2022-08-26T15:28:26.550Z,97182.31
2022-08-26T15:30:34.726Z,97180.84
2022-08-26T15:32:45.519Z,97189.00
2022-08-26T15:34:53.449Z,97179.53
2022-08-26T15:37:02.129Z,97176.38
2022-08-26T15:39:10.544Z,97173.44
2022-08-26T15:41:20.044Z,97173.00
2022-08-26T15:43:29.827Z,97166.06
2022-08-26T15:45:37.803Z,97171.50
2022-08-26T15:48:00.871Z,97167.13
2022-08-26T15:50:11.101Z,97165.63
2022-08-26T15:52:19.071Z,97161.06
2022-08-26T15:54:28.392Z,97155.38
2022-08-26T15:56:47.999Z,97162.06
2022-08-26T15:58:56.736Z,97154.34
2022-08-26T16:01:04.710Z,97159.19
2022-08-26T16:03:15.196Z,97164.19
2022-08-26T16:05:23.065Z,97174.00
2022-08-26T16:07:30.991Z,97188.25
2022-08-26T16:09:38.911Z,97209.59
2022-08-26T16:11:47.062Z,97221.44
2022-08-26T16:13:55.433Z,97222.69
2022-08-26T16:16:03.536Z,97226.00
2022-08-26T16:18:15.677Z,97241.63
2022-08-26T16:20:23.856Z,97249.41
2022-08-26T16:22:33.283Z,97249.38
2022-08-26T16:24:41.456Z,97257.47
2022-08-26T16:26:49.269Z,97260.88
2022-08-26T16:28:57.294Z,97259.25
2022-08-26T16:31:05.312Z,97272.75
2022-08-26T16:33:29.560Z,97278.88
2022-08-26T16:35:37.776Z,97274.28
2022-08-26T16:37:45.948Z,97274.69
2022-08-26T16:39:53.919Z,97272.34
2022-08-26T16:42:01.751Z,97269.72
2022-08-26T16:44:12.156Z,97260.84
2022-08-26T16:46:22.297Z,97264.97
2022-08-26T16:48:32.940Z,97263.91
2022-08-26T16:50:43.070Z,97282.09
2022-08-26T16:52:55.775Z,97284.34
2022-08-26T16:55:04.950Z,97282.41
2022-08-26T16:57:14.223Z,97276.38
2022-08-26T16:59:22.421Z,97266.94
2022-08-26T17:01:31.444Z,97268.16
2022-08-26T17:03:41.888Z,97270.38
2022-08-26T17:05:49.913Z,97270.84
2022-08-26T17:07:58.905Z,97271.53
2022-08-26T17:10:07.815Z,97261.09
2022-08-26T17:12:15.786Z,97261.28
2022-08-26T17:14:24.165Z,97260.50
2022-08-26T17:16:32.200Z,97268.00
2022-08-26T17:18:43.557Z,97259.44
2022-08-26T17:20:54.006Z,97259.34
2022-08-26T17:23:02.123Z,97262.56
2022-08-26T17:25:16.724Z,97265.59
2022-08-26T17:27:24.743Z,97265.28
2022-08-26T17:29:32.627Z,97259.25
2022-08-26T17:31:40.633Z,97252.13
2022-08-26T17:33:55.649Z,97259.75
2022-08-26T17:36:03.953Z,97251.53
2022-08-26T17:38:12.045Z,97262.16
2022-08-26T17:40:23.061Z,97255.72
2022-08-26T17:42:31.877Z,97256.09
2022-08-26T17:44:39.844Z,97262.00
2022-08-26T17:46:47.842Z,97254.25
2022-08-26T17:48:58.648Z,97260.72
2022-08-26T17:51:10.171Z,97253.25
2022-08-26T17:53:19.076Z,97258.53
2022-08-26T17:55:27.284Z,97255.88
2022-08-26T17:57:40.482Z,97259.75
2022-08-26T17:59:49.114Z,97250.66
2022-08-26T18:02:01.477Z,97259.06
2022-08-26T18:04:13.646Z,97262.44
2022-08-26T18:06:23.643Z,97257.91
2022-08-26T18:08:32.071Z,97271.03
2022-08-26T18:10:40.242Z,97274.56
2022-08-26T18:12:48.593Z,97278.91
2022-08-26T18:14:56.529Z,97276.16
2022-08-26T18:17:05.191Z,97283.88
2022-08-26T18:19:15.746Z,97288.97
2022-08-26T18:21:28.644Z,97293.81
2022-08-26T18:23:38.478Z,97290.06
2022-08-26T18:25:47.033Z,97305.63
2022-08-26T18:27:58.093Z,97305.03
2022-08-26T18:30:07.845Z,97314.78
2022-08-26T18:32:18.132Z,97320.16
2022-08-26T18:34:29.451Z,97333.69
2022-08-26T18:36:40.279Z,97354.72
2022-08-26T18:38:50.305Z,97387.97
2022-08-26T18:40:58.526Z,97407.09
2022-08-26T18:43:06.566Z,97412.59
2022-08-26T18:45:16.038Z,97412.22
2022-08-26T18:47:24.175Z,97414.72
2022-08-26T18:49:34.930Z,97416.31
2022-08-26T18:51:43.691Z,97425.13
2022-08-26T18:53:51.860Z,97412.28
2022-08-26T18:55:59.862Z,97409.25
2022-08-26T18:58:07.651Z,97399.88
2022-08-26T19:00:17.567Z,97394.69
2022-08-26T19:02:27.402Z,97374.16
2022-08-26T19:04:41.358Z,97370.91
2022-08-26T19:06:51.061Z,97370.91
2022-08-26T19:09:00.278Z,97369.41
2022-08-26T19:11:08.734Z,97366.38
2022-08-26T19:13:17.174Z,97373.50
2022-08-26T19:15:25.393Z,97380.19
2022-08-26T19:17:33.497Z,97370.91
2022-08-26T19:19:55.083Z,97364.31
2022-08-26T19:22:03.209Z,97359.94
2022-08-26T19:24:15.752Z,97372.88
2022-08-26T19:26:24.322Z,97368.22
2022-08-26T19:28:32.585Z,97369.53
2022-08-26T19:30:42.119Z,97363.53
2022-08-26T19:32:51.195Z,97368.22
2022-08-26T19:35:01.641Z,97374.41
2022-08-26T19:37:09.444Z,97370.50
2022-08-26T19:39:17.471Z,97373.22
2022-08-26T19:41:40.152Z,97373.47
2022-08-26T19:43:48.229Z,97375.78
2022-08-26T19:45:57.004Z,97371.56
2022-08-26T19:48:11.436Z,97379.25
2022-08-26T19:50:22.465Z,97377.09
2022-08-26T19:52:33.391Z,97376.91
2022-08-26T19:54:49.626Z,97379.91
2022-08-26T19:56:57.514Z,97378.53
2022-08-26T19:59:06.007Z,97379.06
2022-08-26T20:01:15.052Z,97381.22
2022-08-26T20:03:23.924Z,97378.84
2022-08-26T20:05:34.416Z,97383.03
2022-08-26T20:07:43.310Z,97390.22
2022-08-26T20:09:51.887Z,97383.53
2022-08-26T20:12:00.196Z,97385.00
2022-08-26T20:14:08.443Z,97381.38
2022-08-26T20:16:17.072Z,97381.53
2022-08-26T20:18:37.879Z,97377.31
2022-08-26T20:21:01.892Z,97373.63
2022-08-26T20:23:09.682Z,97383.69
2022-08-26T20:25:17.922Z,97390.41
2022-08-26T20:27:37.804Z,97391.06
2022-08-26T20:29:50.341Z,97381.63
2022-08-26T20:32:01.777Z,97378.66
2022-08-26T20:34:10.034Z,97373.03
2022-08-26T20:36:21.508Z,97377.16
2022-08-26T20:38:29.390Z,97373.63
2022-08-26T20:40:37.392Z,97389.22
2022-08-26T20:42:45.513Z,97387.16
2022-08-26T20:44:54.205Z,97384.09
2022-08-26T20:47:03.045Z,97383.16
2022-08-26T20:49:11.381Z,97378.28
2022-08-26T20:51:23.002Z,97377.41
2022-08-26T20:53:31.858Z,97374.34
2022-08-26T20:55:39.649Z,97367.41
2022-08-26T20:57:47.532Z,97373.63
2022-08-26T20:59:55.332Z,97369.88
2022-08-26T21:02:03.175Z,97380.63
2022-08-26T21:04:13.480Z,97383.09
2022-08-26T21:06:24.447Z,97387.78
2022-08-26T21:08:33.377Z,97393.47
2022-08-26T21:10:41.681Z,97386.31
2022-08-26T21:12:49.801Z,97389.94
2022-08-26T21:14:58.333Z,97394.09
2022-08-26T21:17:06.930Z,97386.47
2022-08-26T21:19:18.042Z,97392.84
2022-08-26T21:21:29.746Z,97393.78
2022-08-26T21:23:38.179Z,97395.38
2022-08-26T21:25:46.219Z,97386.69
2022-08-26T21:27:55.745Z,97393.53
2022-08-26T21:30:03.637Z,97394.50
2022-08-26T21:32:12.487Z,97395.63
2022-08-26T21:34:23.772Z,97393.16
2022-08-26T21:36:34.481Z,97396.34
2022-08-26T21:38:44.188Z,97388.72
2022-08-26T21:41:00.995Z,97390.63
2022-08-26T21:43:08.821Z,97397.84
2022-08-26T21:45:22.406Z,97383.03
2022-08-26T21:47:32.797Z,97393.66
2022-08-26T21:49:40.751Z,97406.53
2022-08-26T21:51:52.723Z,97402.56
2022-08-26T21:54:01.516Z,97399.09
2022-08-26T21:56:11.308Z,97406.47
2022-08-26T21:58:19.419Z,97405.09
2022-08-26T22:00:27.547Z,97404.00
2022-08-26T22:02:35.440Z,97407.16
2022-08-26T22:04:48.152Z,97395.69
2022-08-26T22:07:00.370Z,97400.38
2022-08-26T22:09:08.298Z,97391.09
2022-08-26T22:11:17.957Z,97400.09
2022-08-26T22:13:28.913Z,97399.69
2022-08-26T22:15:40.399Z,97394.09
2022-08-26T22:17:49.593Z,97385.66
2022-08-26T22:19:58.209Z,97390.34
2022-08-26T22:22:08.695Z,97394.22
2022-08-26T22:24:17.014Z,97393.22
2022-08-26T22:26:26.776Z,97385.66
2022-08-26T22:28:35.194Z,97388.09
2022-08-26T22:30:45.075Z,97401.09
2022-08-26T22:32:53.242Z,97403.63
2022-08-26T22:35:01.595Z,97402.94
2022-08-26T22:37:21.773Z,97399.94
2022-08-26T22:39:29.880Z,97406.16
2022-08-26T22:41:38.025Z,97400.63
2022-08-26T22:43:45.841Z,97411.22
2022-08-26T22:45:54.718Z,97416.28
2022-08-26T22:48:04.706Z,97424.44
2022-08-26T22:50:13.188Z,97427.31
2022-08-26T22:52:23.658Z,97426.69
2022-08-26T22:54:31.819Z,97436.81
2022-08-26T22:56:40.866Z,97436.28
2022-08-26T22:58:48.745Z,97433.59
2022-08-26T23:00:56.844Z,97433.59
2022-08-26T23:03:07.788Z,97437.66
2022-08-26T23:05:16.409Z,97436.59
2022-08-26T23:07:26.892Z,97438.28
2022-08-26T23:09:36.908Z,97439.72
2022-08-26T23:11:46.291Z,97438.38
2022-08-26T23:13:54.496Z,97435.59
2022-08-26T23:16:03.768Z,97434.06
2022-08-26T23:18:12.722Z,97431.78
2022-08-26T23:20:21.573Z,97420.88
2022-08-26T23:22:33.286Z,97428.53
2022-08-26T23:24:42.355Z,97423.44
2022-08-26T23:26:50.937Z,97421.72
2022-08-26T23:28:58.799Z,97419.84
2022-08-26T23:31:07.308Z,97422.22
2022-08-26T23:33:16.102Z,97420.22
2022-08-26T23:35:22.281Z,97417.53
2022-08-26T23:37:36.633Z,97412.47
2022-08-26T23:40:01.211Z,97415.78
2022-08-26T23:42:09.468Z,97414.06
2022-08-26T23:44:21.639Z,97419.53
2022-08-26T23:46:29.701Z,97418.22
2022-08-26T23:48:37.807Z,97421.84
2022-08-26T23:50:57.999Z,97424.63
2022-08-26T23:53:09.078Z,97431.78
2022-08-26T23:55:17.074Z,97425.38
2022-08-26T23:57:27.829Z,97427.69
2022-08-26T23:59:35.696Z,97426.03
